Time;durP1;ratioP1;P1;durP2;ratioP2;P2;SDS_P1;SDS_P2;PMS_P1;PMS_P2;Temp;Humidity;BMP_temperature;BMP_pressure;BME280_temperature;BME280_humidity;BME280_pressure;Samples;Min_cycle;Max_cycle;Signal;HPM_P1;HPM_P2
2023/06/30 00:06:20;;;;;;;14.23;12.73;;;17.40;99.90;;;;;;5582563;24;20409;-85
2023/06/30 00:41:55;;;;;;;14.83;13.43;;;16.90;99.90;;;;;;5793752;24;20213;-85
2023/06/30 01:11:55;;;;;;;18.17;14.90;;;16.30;99.90;;;;;;5577720;24;20604;-86
2023/06/30 01:32:09;;;;;;;17.97;16.17;;;15.90;99.90;;;;;;5506134;25;20221;-86
2023/06/30 02:13:25;;;;;;;19.03;17.07;;;15.30;99.90;;;;;;4882594;28;20276;-87
2023/06/30 02:43:38;;;;;;;19.83;17.73;;;15.10;99.90;;;;;;4724943;29;20706;-85
2023/06/30 03:08:59;;;;;;;21.00;18.80;;;15.00;99.90;;;;;;4663811;29;20403;-85
2023/06/30 03:34:30;;;;;;;22.47;17.80;;;15.50;99.90;;;;;;4664474;29;20619;-85
2023/06/30 03:54:41;;;;;;;20.57;18.57;;;15.70;99.90;;;;;;4618980;30;21305;-86
2023/06/30 04:35:24;;;;;;;13.93;12.20;;;17.30;99.90;;;;;;4862612;28;20660;-82
2023/06/30 05:00:27;;;;;;;14.50;10.73;;;19.20;99.90;;;;;;4692398;29;20264;-84
2023/06/30 05:20:46;;;;;;;11.97;10.20;;;20.40;99.90;;;;;;4664955;29;20241;-84
2023/06/30 05:46:08;;;;;;;12.35;9.07;;;21.70;98.70;;;;;;4629383;30;20194;-85
2023/06/30 06:16:47;;;;;;;6.80;6.10;;;22.80;90.00;;;;;;4800581;29;20338;-87
2023/06/30 06:42:05;;;;;;;6.78;5.82;;;23.20;84.80;;;;;;4747435;28;20203;-84
2023/06/30 08:12:51;;;;;;;3.80;3.10;;;26.20;58.10;;;;;;4579724;29;20553;-84
2023/06/30 08:33:34;;;;;;;5.70;3.25;;;25.50;56.30;;;;;;4752065;29;20346;-84
2023/06/30 09:04:14;;;;;;;3.92;3.10;;;26.30;54.90;;;;;;4694021;29;20564;-81
2023/06/30 10:10:16;;;;;;;3.33;3.00;;;26.70;50.20;;;;;;4818386;28;20386;-83
2023/06/30 10:35:23;;;;;;;5.63;3.10;;;27.10;49.70;;;;;;4736981;29;20795;-80
2023/06/30 11:30:45;;;;;;;4.82;3.03;;;26.60;49.10;;;;;;4782067;29;20479;-83
2023/06/30 11:51:44;;;;;;;3.55;3.25;;;26.30;49.80;;;;;;4809418;28;20272;-84
2023/06/30 12:12:01;;;;;;;3.33;2.83;;;26.90;49.80;;;;;;4779012;29;20633;-83
2023/06/30 13:02:37;;;;;;;3.85;3.30;;;28.90;46.10;;;;;;4858417;29;20299;-85
2023/06/30 13:32:50;;;;;;;6.57;3.63;;;26.50;48.50;;;;;;4766824;29;20377;-88
2023/06/30 13:53:15;;;;;;;4.93;4.10;;;25.70;50.00;;;;;;4628140;30;20224;-84
2023/06/30 14:23:53;;;;;;;6.22;3.88;;;26.10;51.40;;;;;;4674413;29;20295;-86
2023/06/30 14:48:57;;;;;;;4.18;3.80;;;27.10;50.70;;;;;;4603309;30;20871;-83
2023/06/30 15:39:55;;;;;;;4.00;3.70;;;29.00;49.90;;;;;;4843369;29;20266;-86
2023/06/30 16:05:16;;;;;;;4.95;4.32;;;27.20;50.90;;;;;;4784521;29;20771;-86
2023/06/30 16:25:09;;;;;;;6.05;3.60;;;28.10;51.00;;;;;;4666591;30;20232;-89
2023/06/30 16:50:53;;;;;;;3.67;3.38;;;26.60;51.60;;;;;;4649925;30;20220;-87
2023/06/30 17:20:46;;;;;;;3.42;3.22;;;26.10;51.40;;;;;;4725364;29;20923;-86
2023/06/30 17:46:48;;;;;;;4.63;3.65;;;25.50;52.30;;;;;;4769219;29;20235;-89
2023/06/30 18:57:23;;;;;;;6.60;4.75;;;24.00;71.70;;;;;;4792487;29;20369;-86
2023/06/30 19:48:31;;;;;;;5.55;4.80;;;23.90;80.70;;;;;;4934838;28;20293;-84
2023/06/30 20:13:38;;;;;;;5.30;4.90;;;23.40;83.90;;;;;;4909433;28;20216;-83
2023/06/30 20:38:40;;;;;;;5.63;5.13;;;22.20;90.10;;;;;;4707726;29;20352;-87
2023/06/30 20:59:37;;;;;;;7.15;6.45;;;21.30;99.90;;;;;;4796940;29;20215;-85
2023/06/30 21:19:50;;;;;;;6.97;6.33;;;21.00;99.90;;;;;;4815486;29;20485;-85
2023/06/30 21:55:05;;;;;;;10.40;9.37;;;19.80;99.90;;;;;;4680004;29;20290;-85
2023/06/30 22:20:19;;;;;;;15.10;13.70;;;19.10;99.90;;;;;;4693504;29;20746;-85
2023/06/30 23:11:11;;;;;;;20.40;18.50;;;18.40;99.90;;;;;;4639024;29;20245;-85
2023/06/30 23:36:31;;;;;;;22.17;19.83;;;18.40;99.90;;;;;;4709259;29;20314;-82
2023/06/30 23:56:57;;;;;;;21.00;18.90;;;18.30;99.90;;;;;;4776812;29;20231;-82
